createdAt,value
2022-10-29T00:02:48.119Z,8.33
2022-10-29T00:06:13.087Z,9.57
2022-10-29T00:09:36.850Z,11.13
2022-10-29T00:13:03.548Z,9.73
2022-10-29T00:16:29.655Z,10.90
2022-10-29T00:19:53.442Z,10.40
2022-10-29T00:23:17.277Z,11.43
2022-10-29T00:26:41.277Z,10.17
2022-10-29T00:30:07.305Z,11.10
2022-10-29T00:33:30.905Z,10.30
2022-10-29T00:36:54.621Z,9.77
2022-10-29T00:40:18.399Z,9.87
2022-10-29T00:43:47.801Z,10.73
2022-10-29T00:47:20.438Z,10.20
2022-10-29T00:50:45.206Z,11.20
2022-10-29T00:54:12.186Z,10.70
2022-10-29T00:57:39.200Z,10.57
2022-10-29T01:01:03.469Z,10.20
2022-10-29T01:04:28.920Z,10.33
2022-10-29T01:07:52.679Z,10.33
2022-10-29T01:11:24.358Z,9.50
2022-10-29T01:14:57.559Z,9.73
2022-10-29T01:18:25.753Z,9.63
2022-10-29T01:21:59.141Z,10.47
2022-10-29T01:25:42.720Z,12.00
2022-10-29T01:29:28.419Z,11.30
2022-10-29T01:33:07.729Z,9.90
2022-10-29T01:36:35.019Z,11.33
2022-10-29T01:40:06.316Z,11.73
2022-10-29T01:43:35.698Z,10.80
2022-10-29T01:47:01.914Z,10.03
2022-10-29T01:50:27.747Z,10.10
2022-10-29T01:53:52.398Z,10.73
2022-10-29T01:57:31.771Z,10.20
2022-10-29T02:01:04.502Z,12.37
2022-10-29T02:04:54.825Z,10.57
2022-10-29T02:08:30.593Z,10.57
2022-10-29T02:12:00.097Z,10.60
2022-10-29T02:15:29.099Z,9.40
2022-10-29T02:18:53.078Z,9.70
2022-10-29T02:22:16.839Z,11.27
2022-10-29T02:25:42.338Z,10.90
2022-10-29T02:29:06.228Z,12.53
2022-10-29T02:32:29.830Z,11.73
2022-10-29T02:35:53.431Z,11.33
2022-10-29T02:39:17.181Z,11.27
2022-10-29T02:42:42.284Z,12.40
2022-10-29T02:46:16.481Z,12.43
2022-10-29T02:49:40.176Z,12.97
2022-10-29T02:53:03.952Z,12.70
2022-10-29T02:56:27.541Z,12.93
2022-10-29T02:59:52.533Z,12.30
2022-10-29T03:03:16.202Z,12.53
2022-10-29T03:06:39.900Z,12.30
2022-10-29T03:10:03.794Z,11.83
2022-10-29T03:13:27.655Z,12.73
2022-10-29T03:16:52.758Z,11.37
2022-10-29T03:20:16.673Z,12.33
2022-10-29T03:23:40.368Z,13.10
2022-10-29T03:27:04.084Z,11.50
2022-10-29T03:30:27.776Z,13.50
2022-10-29T03:33:52.831Z,13.00
2022-10-29T03:37:16.561Z,13.30
2022-10-29T03:40:40.186Z,13.60
2022-10-29T03:44:03.834Z,12.00
2022-10-29T03:47:27.789Z,13.70
2022-10-29T03:51:01.418Z,13.00
2022-10-29T03:54:25.132Z,11.77
2022-10-29T03:57:48.790Z,11.90
2022-10-29T04:01:12.514Z,11.30
2022-10-29T04:04:36.227Z,12.07
2022-10-29T04:08:01.336Z,12.43
2022-10-29T04:11:25.088Z,11.73
2022-10-29T04:14:48.735Z,11.60
2022-10-29T04:18:13.153Z,11.03
2022-10-29T04:29:05.757Z,11.60
2022-10-29T04:32:29.530Z,14.20
2022-10-29T04:35:54.143Z,13.03
2022-10-29T04:39:19.662Z,14.90
2022-10-29T04:42:47.783Z,14.50
2022-10-29T04:46:12.084Z,15.37
2022-10-29T04:49:35.975Z,12.80
2022-10-29T04:53:00.093Z,13.43
2022-10-29T04:56:25.055Z,13.57
2022-10-29T04:59:50.132Z,12.70
2022-10-29T05:03:14.146Z,14.60
2022-10-29T05:06:37.794Z,13.10
2022-10-29T05:10:01.535Z,12.00
2022-10-29T05:13:25.502Z,13.27
2022-10-29T05:16:50.412Z,13.70
2022-10-29T05:20:14.007Z,13.03
2022-10-29T05:23:37.767Z,14.20
2022-10-29T05:27:02.131Z,12.23
2022-10-29T05:30:25.882Z,13.67
2022-10-29T05:33:53.915Z,13.47
2022-10-29T05:37:19.587Z,15.10
2022-10-29T05:40:45.203Z,14.97
2022-10-29T05:44:09.169Z,14.07
2022-10-29T05:47:32.896Z,13.43
2022-10-29T05:50:58.235Z,12.73
2022-10-29T05:54:22.780Z,12.83
2022-10-29T05:57:46.401Z,12.53
2022-10-29T06:01:11.032Z,13.73
2022-10-29T06:04:35.725Z,14.17
2022-10-29T06:08:01.803Z,14.37
2022-10-29T06:11:25.398Z,14.17
2022-10-29T06:14:49.034Z,14.47
2022-10-29T06:18:12.815Z,14.60
2022-10-29T06:21:36.639Z,15.87
2022-10-29T06:25:01.716Z,13.47
2022-10-29T06:28:28.048Z,13.33
2022-10-29T06:31:53.968Z,14.43
2022-10-29T06:35:17.685Z,14.70
2022-10-29T06:38:41.299Z,13.97
2022-10-29T06:42:06.367Z,14.70
2022-10-29T06:45:31.693Z,14.13
2022-10-29T06:48:55.522Z,13.97
2022-10-29T06:52:19.211Z,14.10
2022-10-29T06:55:42.853Z,14.77
2022-10-29T06:59:08.294Z,13.87
2022-10-29T07:02:31.949Z,13.97
2022-10-29T07:05:59.451Z,14.90
2022-10-29T07:09:23.109Z,14.30
2022-10-29T07:12:46.869Z,14.53
2022-10-29T07:16:11.846Z,14.37
2022-10-29T07:19:35.593Z,14.47
2022-10-29T07:23:00.308Z,13.90
2022-10-29T07:26:23.950Z,13.90
2022-10-29T07:29:47.705Z,13.43
2022-10-29T07:33:13.169Z,13.10
2022-10-29T07:36:36.765Z,12.80
2022-10-29T07:40:00.404Z,12.90
2022-10-29T07:43:24.078Z,15.20
2022-10-29T07:46:47.792Z,15.83
2022-10-29T07:50:13.031Z,15.10
2022-10-29T07:53:36.689Z,12.93
2022-10-29T07:57:00.329Z,12.60
2022-10-29T08:00:24.250Z,13.30
2022-10-29T08:03:48.124Z,12.70
2022-10-29T08:07:13.366Z,13.40
2022-10-29T08:10:37.657Z,13.10
2022-10-29T08:14:01.538Z,12.57
2022-10-29T08:17:25.254Z,12.47
2022-10-29T08:20:49.454Z,13.03
2022-10-29T08:24:14.502Z,11.70
2022-10-29T08:27:38.117Z,11.37
2022-10-29T08:31:01.770Z,11.83
2022-10-29T08:34:25.476Z,12.37
2022-10-29T08:37:49.221Z,11.80
2022-10-29T08:41:28.816Z,12.27
2022-10-29T08:45:24.860Z,13.77
2022-10-29T08:48:53.798Z,12.90
2022-10-29T08:52:24.155Z,12.57
2022-10-29T08:55:48.214Z,13.63
2022-10-29T08:59:16.971Z,13.80
2022-10-29T09:02:41.208Z,14.13
2022-10-29T09:06:12.098Z,13.27
2022-10-29T09:09:40.130Z,12.87
2022-10-29T09:13:21.158Z,12.80
2022-10-29T09:16:53.382Z,13.23
2022-10-29T09:20:29.388Z,10.83
2022-10-29T09:24:02.956Z,11.50
2022-10-29T09:27:38.235Z,10.53
2022-10-29T09:31:09.318Z,10.90
2022-10-29T09:34:41.213Z,11.93
2022-10-29T09:38:13.862Z,12.13
2022-10-29T09:41:39.947Z,13.40
2022-10-29T09:45:09.239Z,9.80
2022-10-29T09:48:38.974Z,11.97
2022-10-29T09:52:07.864Z,12.80
2022-10-29T09:55:39.544Z,11.17
2022-10-29T09:59:16.356Z,10.87
2022-10-29T10:02:44.788Z,9.50
2022-10-29T10:06:09.904Z,10.20
2022-10-29T10:09:52.968Z,10.80
2022-10-29T10:13:18.350Z,8.73
2022-10-29T10:16:43.998Z,11.80
2022-10-29T10:20:28.262Z,9.73
2022-10-29T10:23:52.879Z,9.53
2022-10-29T10:27:31.780Z,8.53
2022-10-29T10:31:12.332Z,9.13
2022-10-29T10:34:38.610Z,8.60
2022-10-29T10:38:09.369Z,8.57
2022-10-29T10:41:36.557Z,9.90
2022-10-29T10:45:03.775Z,7.90
2022-10-29T10:48:33.387Z,8.57
2022-10-29T10:51:59.350Z,9.97
2022-10-29T10:55:28.669Z,9.90
2022-10-29T10:59:02.633Z,8.57
2022-10-29T11:02:34.609Z,9.27
2022-10-29T11:06:03.949Z,7.97
2022-10-29T11:09:33.365Z,6.90
2022-10-29T11:13:01.485Z,6.80
2022-10-29T11:16:31.758Z,6.97
2022-10-29T11:20:00.759Z,5.80
2022-10-29T11:23:34.727Z,6.43
2022-10-29T11:27:03.675Z,7.00
2022-10-29T11:30:29.148Z,6.30
2022-10-29T11:34:01.418Z,6.10
2022-10-29T11:37:32.646Z,5.43
2022-10-29T11:41:04.757Z,5.30
2022-10-29T11:44:29.160Z,4.90
2022-10-29T11:48:12.820Z,4.10
2022-10-29T11:51:48.553Z,5.20
2022-10-29T11:55:24.428Z,5.20
2022-10-29T11:58:55.473Z,4.77
2022-10-29T12:02:30.704Z,5.27
2022-10-29T12:06:02.554Z,4.67
2022-10-29T12:09:47.779Z,5.20
2022-10-29T12:13:22.790Z,4.47
2022-10-29T12:16:55.763Z,4.07
2022-10-29T12:20:28.861Z,4.93
2022-10-29T12:24:01.886Z,5.00
2022-10-29T12:27:35.867Z,5.27
2022-10-29T12:31:16.431Z,5.80
2022-10-29T12:34:46.137Z,4.80
2022-10-29T12:38:26.119Z,5.10
2022-10-29T12:41:52.443Z,4.50
2022-10-29T12:45:30.495Z,5.50
2022-10-29T12:49:02.536Z,6.00
2022-10-29T12:52:34.619Z,4.90
2022-10-29T12:55:59.346Z,4.97
2022-10-29T12:59:34.390Z,5.97
2022-10-29T13:02:58.671Z,5.87
2022-10-29T13:06:49.471Z,4.80
2022-10-29T13:10:48.731Z,4.93
2022-10-29T13:14:16.802Z,5.50
2022-10-29T13:17:44.960Z,5.67
2022-10-29T13:21:09.689Z,4.87
2022-10-29T13:24:34.790Z,5.07
2022-10-29T13:27:58.782Z,6.47
2022-10-29T13:31:47.570Z,5.57
2022-10-29T13:35:52.619Z,6.67
2022-10-29T13:39:20.661Z,7.10
2022-10-29T13:42:46.487Z,5.90
2022-10-29T13:46:29.271Z,7.20
2022-10-29T13:49:53.357Z,5.80
2022-10-29T13:53:22.306Z,5.87
2022-10-29T13:56:50.128Z,5.80
2022-10-29T14:00:20.675Z,5.13
2022-10-29T14:03:57.332Z,4.63
2022-10-29T14:07:26.116Z,5.50
2022-10-29T14:10:52.688Z,6.33
2022-10-29T14:14:27.610Z,6.30
2022-10-29T14:17:52.735Z,5.57
2022-10-29T14:21:19.157Z,6.00
2022-10-29T14:24:42.877Z,5.67
2022-10-29T14:28:20.699Z,5.47
2022-10-29T14:31:44.399Z,5.20
2022-10-29T14:35:15.032Z,6.00
2022-10-29T14:38:43.739Z,5.60
2022-10-29T14:42:11.766Z,5.00
2022-10-29T14:45:35.617Z,5.17
2022-10-29T14:49:10.430Z,6.23
2022-10-29T14:52:39.642Z,5.70
2022-10-29T14:56:10.558Z,5.60
2022-10-29T14:59:36.379Z,6.50
2022-10-29T15:03:00.684Z,5.40
2022-10-29T15:06:28.567Z,4.80
2022-10-29T15:10:19.064Z,5.47
2022-10-29T15:13:42.601Z,6.07
2022-10-29T15:17:12.879Z,5.93
2022-10-29T15:20:45.546Z,6.33
2022-10-29T15:24:17.779Z,6.30
2022-10-29T15:27:44.709Z,5.13
2022-10-29T15:31:13.156Z,5.20
2022-10-29T15:34:38.264Z,5.13
2022-10-29T15:38:02.033Z,6.00
2022-10-29T15:41:38.077Z,5.50
2022-10-29T15:45:30.249Z,5.53
2022-10-29T15:48:54.354Z,5.80
2022-10-29T15:52:28.823Z,6.00
2022-10-29T15:55:55.646Z,4.93
2022-10-29T15:59:23.763Z,5.10
2022-10-29T16:02:48.899Z,5.40
2022-10-29T16:06:13.695Z,5.90
2022-10-29T16:09:38.509Z,6.00
2022-10-29T16:13:02.219Z,5.37
2022-10-29T16:16:26.732Z,5.60
2022-10-29T16:19:51.900Z,6.37
2022-10-29T16:23:15.981Z,4.77
2022-10-29T16:26:39.515Z,6.10
2022-10-29T16:30:03.236Z,6.50
2022-10-29T16:33:27.118Z,7.67
2022-10-29T16:36:52.027Z,5.50
2022-10-29T16:40:16.681Z,7.20
2022-10-29T16:43:40.335Z,6.10
2022-10-29T16:47:04.033Z,6.77
2022-10-29T16:50:29.505Z,7.30
2022-10-29T16:53:54.634Z,7.43
2022-10-29T16:57:18.275Z,6.10
2022-10-29T17:00:42.037Z,7.90
2022-10-29T17:04:05.819Z,7.00
2022-10-29T17:07:29.862Z,6.30
2022-10-29T17:11:00.388Z,7.27
2022-10-29T17:14:24.037Z,8.07
2022-10-29T17:17:47.722Z,7.57
2022-10-29T17:21:11.255Z,6.50
2022-10-29T17:24:35.004Z,8.87
2022-10-29T17:28:00.330Z,8.27
2022-10-29T17:31:25.543Z,8.43
2022-10-29T17:34:49.301Z,8.93
2022-10-29T17:38:13.607Z,10.00
2022-10-29T17:41:37.554Z,11.20
2022-10-29T17:45:02.651Z,8.97
2022-10-29T17:48:26.924Z,9.20
2022-10-29T17:51:50.549Z,10.00
2022-10-29T17:55:14.169Z,8.67
2022-10-29T17:58:39.451Z,8.10
2022-10-29T18:02:04.598Z,10.77
2022-10-29T18:05:28.257Z,10.10
2022-10-29T18:08:51.901Z,9.60
2022-10-29T18:12:15.579Z,9.70
2022-10-29T18:15:40.033Z,11.00
2022-10-29T18:19:04.984Z,11.33
2022-10-29T18:22:28.875Z,13.10
2022-10-29T18:26:03.000Z,14.93
2022-10-29T18:29:26.603Z,12.00
2022-10-29T18:32:50.500Z,13.50
2022-10-29T18:36:15.461Z,11.10
2022-10-29T18:39:39.888Z,12.27
2022-10-29T18:43:03.571Z,12.53
2022-10-29T18:46:28.045Z,11.93
2022-10-29T18:49:51.591Z,11.83
2022-10-29T18:53:16.706Z,11.77
2022-10-29T18:56:40.655Z,11.77
2022-10-29T19:00:05.213Z,12.30
2022-10-29T19:03:28.852Z,13.57
2022-10-29T19:06:52.417Z,13.13
2022-10-29T19:10:17.664Z,10.37
2022-10-29T19:13:41.605Z,12.67
2022-10-29T19:17:05.206Z,11.63
2022-10-29T19:20:29.694Z,11.50
2022-10-29T19:23:55.877Z,13.30
2022-10-29T19:27:20.883Z,12.80
2022-10-29T19:30:44.470Z,12.20
2022-10-29T19:34:09.564Z,13.00
2022-10-29T19:37:33.250Z,10.87
2022-10-29T19:40:58.210Z,11.67
2022-10-29T19:44:23.294Z,12.17
2022-10-29T19:47:47.035Z,12.30
2022-10-29T19:51:11.776Z,12.97
2022-10-29T19:54:35.437Z,12.43
2022-10-29T19:57:59.186Z,12.93
2022-10-29T20:01:24.137Z,11.30
2022-10-29T20:04:47.837Z,11.57
2022-10-29T20:08:15.693Z,12.07
2022-10-29T20:11:40.045Z,12.80
2022-10-29T20:15:03.695Z,13.13
2022-10-29T20:18:28.611Z,13.70
2022-10-29T20:21:52.226Z,13.07
2022-10-29T20:25:19.992Z,12.03
2022-10-29T20:28:47.696Z,11.60
2022-10-29T20:32:11.360Z,12.80
2022-10-29T20:35:36.344Z,13.70
2022-10-29T20:39:00.176Z,12.00
2022-10-29T20:42:23.855Z,12.83
2022-10-29T20:45:47.552Z,14.30
2022-10-29T20:49:11.188Z,13.40
2022-10-29T20:52:36.214Z,14.13
2022-10-29T20:55:59.853Z,12.90
2022-10-29T20:59:23.376Z,14.97
2022-10-29T21:02:47.169Z,11.50
2022-10-29T21:06:17.046Z,14.30
2022-10-29T21:09:42.575Z,14.67
2022-10-29T21:13:06.509Z,14.70
2022-10-29T21:16:30.707Z,13.13
2022-10-29T21:19:54.259Z,11.80
2022-10-29T21:23:21.360Z,12.10
2022-10-29T21:26:48.974Z,14.17
2022-10-29T21:30:14.156Z,12.67
2022-10-29T21:33:38.080Z,12.53
2022-10-29T21:37:01.813Z,12.53
2022-10-29T21:40:25.427Z,14.07
2022-10-29T21:43:50.368Z,11.80
2022-10-29T21:47:14.030Z,12.77
2022-10-29T21:50:38.127Z,12.23
2022-10-29T21:54:01.756Z,12.20
2022-10-29T21:57:25.356Z,12.90
2022-10-29T22:00:50.604Z,12.10
2022-10-29T22:04:14.361Z,13.23
2022-10-29T22:07:38.019Z,12.50
2022-10-29T22:11:02.333Z,12.87
2022-10-29T22:14:25.927Z,12.83
2022-10-29T22:17:50.916Z,11.97
2022-10-29T22:21:17.318Z,12.40
2022-10-29T22:24:40.986Z,12.80
2022-10-29T22:28:04.924Z,13.13
2022-10-29T22:31:28.696Z,12.47
2022-10-29T22:34:53.718Z,12.63
2022-10-29T22:38:17.329Z,13.17
2022-10-29T22:41:40.959Z,11.37
2022-10-29T22:45:05.186Z,11.20
2022-10-29T22:48:28.841Z,10.83
2022-10-29T22:51:58.607Z,10.93
2022-10-29T22:55:25.133Z,10.83
2022-10-29T22:58:49.294Z,11.70
2022-10-29T23:02:13.117Z,13.53
2022-10-29T23:05:36.817Z,12.40
2022-10-29T23:09:02.468Z,11.10
2022-10-29T23:12:26.189Z,11.40
2022-10-29T23:15:50.237Z,10.07
2022-10-29T23:19:13.928Z,10.83
2022-10-29T23:22:37.605Z,10.00
2022-10-29T23:26:03.840Z,8.97
2022-10-29T23:29:27.479Z,9.47
2022-10-29T23:32:51.203Z,9.10
2022-10-29T23:36:15.982Z,8.13
2022-10-29T23:39:39.646Z,8.30
2022-10-29T23:43:04.591Z,10.00
2022-10-29T23:46:28.311Z,8.07
2022-10-29T23:49:52.006Z,7.37
2022-10-29T23:53:16.048Z,8.10
2022-10-29T23:56:39.660Z,8.30
